createdAt,value
2023-01-19T00:00:51.585Z,4.47
2023-01-19T00:03:18.549Z,4.47
2023-01-19T00:05:45.488Z,4.43
2023-01-19T00:08:15.365Z,4.57
2023-01-19T00:10:43.767Z,4.45
2023-01-19T00:13:10.591Z,4.50
2023-01-19T00:15:37.240Z,4.38
2023-01-19T00:18:03.926Z,4.38
2023-01-19T00:20:32.810Z,4.00
2023-01-19T00:22:59.677Z,3.90
2023-01-19T00:25:26.436Z,4.93
2023-01-19T00:27:52.971Z,4.35
2023-01-19T00:30:19.489Z,4.15
2023-01-19T00:32:46.107Z,4.15
2023-01-19T00:35:12.649Z,4.55
2023-01-19T00:37:39.213Z,4.53
2023-01-19T00:40:06.579Z,4.88
2023-01-19T00:42:44.376Z,4.25
2023-01-19T00:45:22.745Z,4.60
2023-01-19T00:47:54.779Z,4.88
2023-01-19T00:50:21.413Z,4.55
2023-01-19T00:52:47.985Z,4.53
2023-01-19T00:55:16.147Z,4.63
2023-01-19T00:57:43.251Z,5.30
2023-01-19T01:00:14.211Z,4.53
2023-01-19T01:02:42.395Z,4.90
2023-01-19T01:05:09.890Z,4.47
2023-01-19T01:07:45.124Z,4.50
2023-01-19T01:10:18.476Z,3.95
2023-01-19T01:13:05.065Z,4.97
2023-01-19T01:15:32.616Z,4.90
2023-01-19T01:17:59.167Z,5.20
2023-01-19T01:20:28.649Z,6.10
2023-01-19T01:22:55.895Z,5.35
2023-01-19T01:25:24.642Z,5.50
2023-01-19T01:27:51.628Z,5.63
2023-01-19T01:30:19.489Z,5.40
2023-01-19T01:32:46.170Z,5.00
2023-01-19T01:35:13.389Z,4.53
2023-01-19T01:37:40.766Z,5.88
2023-01-19T01:40:09.080Z,5.03
2023-01-19T01:42:35.970Z,4.65
2023-01-19T01:45:07.657Z,4.65
2023-01-19T01:47:42.780Z,4.90
2023-01-19T01:50:22.338Z,4.80
2023-01-19T01:53:06.963Z,4.60
2023-01-19T01:55:42.099Z,4.25
2023-01-19T01:58:10.917Z,4.25
2023-01-19T02:00:57.606Z,4.28
2023-01-19T02:03:26.146Z,4.25
2023-01-19T02:05:57.662Z,4.28
2023-01-19T02:09:05.127Z,4.25
2023-01-19T02:11:51.410Z,3.78
2023-01-19T02:14:19.049Z,3.72
2023-01-19T02:16:46.252Z,3.60
2023-01-19T02:19:18.255Z,3.78
2023-01-19T02:21:50.092Z,3.55
2023-01-19T02:24:17.413Z,3.75
2023-01-19T02:26:47.082Z,4.30
2023-01-19T02:29:18.026Z,4.07
2023-01-19T02:31:45.489Z,3.90
2023-01-19T02:34:15.407Z,3.90
2023-01-19T02:36:49.623Z,3.80
2023-01-19T02:39:19.831Z,4.10
2023-01-19T02:41:53.415Z,4.35
2023-01-19T02:44:21.197Z,4.28
2023-01-19T02:46:47.733Z,3.92
2023-01-19T02:49:14.797Z,4.30
2023-01-19T02:51:44.020Z,3.95
2023-01-19T02:54:28.602Z,3.95
2023-01-19T02:57:18.530Z,4.60
2023-01-19T02:59:53.963Z,4.55
2023-01-19T03:02:29.930Z,4.53
2023-01-19T03:05:14.828Z,4.68
2023-01-19T03:08:04.819Z,4.70
2023-01-19T03:10:51.498Z,4.72
2023-01-19T03:13:39.981Z,5.43
2023-01-19T03:16:49.743Z,5.60
2023-01-19T03:19:28.543Z,5.43
2023-01-19T03:21:59.263Z,5.40
2023-01-19T03:24:30.751Z,5.75
2023-01-19T03:27:06.036Z,5.47
2023-01-19T03:29:37.620Z,4.70
2023-01-19T03:32:09.394Z,5.22
2023-01-19T03:34:39.136Z,4.75
2023-01-19T03:37:08.206Z,4.75
2023-01-19T03:39:34.767Z,4.28
2023-01-19T03:42:06.055Z,4.70
2023-01-19T03:44:37.081Z,4.72
2023-01-19T03:47:07.082Z,4.40
2023-01-19T03:49:35.161Z,4.25
2023-01-19T03:52:02.102Z,4.15
2023-01-19T03:54:28.608Z,4.15
2023-01-19T03:56:55.173Z,4.13
2023-01-19T03:59:21.923Z,3.88
2023-01-19T04:01:49.342Z,4.55
2023-01-19T04:04:16.393Z,4.43
2023-01-19T04:06:43.976Z,4.15
2023-01-19T04:09:10.695Z,4.95
2023-01-19T04:11:37.233Z,4.07
2023-01-19T04:14:04.338Z,4.43
2023-01-19T04:16:30.882Z,4.30
2023-01-19T04:18:57.465Z,4.18
2023-01-19T04:21:24.003Z,4.18
2023-01-19T04:23:50.755Z,3.92
2023-01-19T04:26:17.281Z,4.07
2023-01-19T04:28:43.868Z,4.05
2023-01-19T04:31:10.810Z,4.30
2023-01-19T04:33:37.456Z,4.35
2023-01-19T04:36:04.338Z,4.03
2023-01-19T04:38:30.976Z,4.03
2023-01-19T04:40:57.567Z,3.75
2023-01-19T04:43:24.432Z,3.63
2023-01-19T04:45:51.171Z,3.88
2023-01-19T04:48:18.613Z,3.83
2023-01-19T04:50:46.033Z,4.00
2023-01-19T04:53:13.737Z,4.05
2023-01-19T04:55:41.019Z,4.13
2023-01-19T04:58:07.812Z,4.20
2023-01-19T05:00:34.741Z,3.53
2023-01-19T05:03:02.022Z,3.80
2023-01-19T05:05:29.231Z,3.80
2023-01-19T05:07:56.007Z,3.35
2023-01-19T05:10:23.765Z,4.10
2023-01-19T05:12:51.284Z,4.13
2023-01-19T05:15:17.842Z,4.10
2023-01-19T05:17:44.468Z,4.38
2023-01-19T05:20:15.678Z,3.97
2023-01-19T05:22:42.914Z,3.75
2023-01-19T05:25:09.814Z,3.90
2023-01-19T05:27:37.123Z,3.70
2023-01-19T05:30:05.488Z,3.95
2023-01-19T05:32:32.130Z,4.03
2023-01-19T05:34:58.750Z,3.70
2023-01-19T05:37:25.258Z,4.55
2023-01-19T05:39:52.127Z,4.55
2023-01-19T05:42:18.765Z,3.83
2023-01-19T05:44:45.296Z,3.70
2023-01-19T05:47:11.819Z,4.25
2023-01-19T05:49:38.390Z,4.40
2023-01-19T05:52:04.900Z,4.05
2023-01-19T05:54:31.403Z,5.07
2023-01-19T05:56:58.265Z,4.43
2023-01-19T05:59:24.899Z,4.07
2023-01-19T06:01:52.162Z,3.88
2023-01-19T06:04:19.856Z,4.63
2023-01-19T06:06:50.345Z,4.13
2023-01-19T06:09:17.891Z,4.25
2023-01-19T06:11:45.407Z,3.70
2023-01-19T06:14:12.170Z,4.18
2023-01-19T06:16:38.857Z,4.05
2023-01-19T06:19:05.793Z,4.03
2023-01-19T06:21:32.724Z,4.18
2023-01-19T06:23:59.235Z,3.85
2023-01-19T06:26:26.277Z,4.28
2023-01-19T06:28:52.902Z,3.85
2023-01-19T06:31:19.545Z,4.68
2023-01-19T06:33:46.158Z,4.72
2023-01-19T06:36:12.793Z,4.60
2023-01-19T06:38:39.337Z,4.03
2023-01-19T06:41:05.875Z,4.38
2023-01-19T06:43:32.501Z,3.67
2023-01-19T06:46:00.585Z,4.18
2023-01-19T06:48:27.321Z,4.03
2023-01-19T06:50:53.886Z,4.43
2023-01-19T06:53:22.244Z,4.63
2023-01-19T06:55:48.817Z,4.03
2023-01-19T06:58:15.632Z,3.70
2023-01-19T07:00:43.007Z,4.15
2023-01-19T07:03:21.547Z,3.88
2023-01-19T07:05:51.825Z,4.18
2023-01-19T07:08:18.426Z,4.28
2023-01-19T07:11:25.948Z,4.90
2023-01-19T07:13:32.828Z,4.18
2023-01-19T07:16:03.385Z,4.32
2023-01-19T07:18:30.190Z,4.15
2023-01-19T07:20:57.845Z,4.07
2023-01-19T07:23:24.384Z,4.20
2023-01-19T07:25:50.900Z,4.10
2023-01-19T07:28:17.516Z,3.95
2023-01-19T07:30:46.222Z,4.30
2023-01-19T07:33:12.875Z,3.75
2023-01-19T07:35:39.379Z,4.63
2023-01-19T07:38:05.908Z,3.88
2023-01-19T07:40:33.751Z,4.03
2023-01-19T07:43:00.652Z,4.38
2023-01-19T07:45:27.996Z,4.35
2023-01-19T07:47:54.626Z,4.72
2023-01-19T07:50:24.499Z,4.43
2023-01-19T07:52:53.490Z,4.82
2023-01-19T07:55:21.799Z,4.65
2023-01-19T07:57:51.030Z,4.40
2023-01-19T08:00:21.819Z,5.45
2023-01-19T08:02:51.272Z,4.88
2023-01-19T08:05:19.117Z,5.50
2023-01-19T08:07:46.788Z,5.38
2023-01-19T08:10:14.864Z,5.57
2023-01-19T08:12:42.507Z,4.80
2023-01-19T08:15:10.209Z,4.65
2023-01-19T08:17:37.259Z,5.22
2023-01-19T08:20:04.547Z,4.82
2023-01-19T08:22:31.391Z,5.80
2023-01-19T08:24:58.016Z,5.30
2023-01-19T08:27:24.810Z,4.78
2023-01-19T08:29:51.430Z,5.40
2023-01-19T08:32:18.001Z,5.10
2023-01-19T08:34:44.559Z,4.78
2023-01-19T08:37:11.464Z,4.10
2023-01-19T08:39:38.088Z,4.70
2023-01-19T08:42:05.591Z,4.90
2023-01-19T08:44:32.159Z,4.30
2023-01-19T08:46:59.991Z,4.22
2023-01-19T08:49:26.644Z,4.38
2023-01-19T08:51:53.335Z,4.88
2023-01-19T08:54:21.709Z,4.57
2023-01-19T08:56:48.331Z,4.55
2023-01-19T08:59:14.963Z,4.30
2023-01-19T09:01:41.684Z,4.03
2023-01-19T09:04:08.535Z,4.28
2023-01-19T09:06:35.215Z,4.18
2023-01-19T09:09:01.891Z,3.63
2023-01-19T09:11:28.412Z,3.75
2023-01-19T09:13:55.031Z,4.03
2023-01-19T09:16:21.644Z,4.00
2023-01-19T09:18:48.245Z,4.00
2023-01-19T09:21:15.198Z,4.38
2023-01-19T09:23:41.837Z,4.43
2023-01-19T09:26:08.442Z,4.47
2023-01-19T09:28:35.070Z,4.25
2023-01-19T09:31:07.009Z,3.85
2023-01-19T09:33:34.462Z,4.05
2023-01-19T09:36:02.180Z,4.10
2023-01-19T09:38:32.564Z,3.80
2023-01-19T09:41:00.366Z,3.92
2023-01-19T09:43:47.504Z,4.05
2023-01-19T09:46:27.344Z,4.05
2023-01-19T09:48:57.729Z,4.10
2023-01-19T09:51:26.995Z,4.53
2023-01-19T09:54:12.275Z,4.15
2023-01-19T09:56:38.935Z,4.53
2023-01-19T09:59:31.862Z,3.72
2023-01-19T10:02:25.971Z,4.35
2023-01-19T10:05:24.619Z,4.22
2023-01-19T10:07:58.232Z,4.30
2023-01-19T10:10:27.553Z,4.10
2023-01-19T10:13:25.902Z,3.88
2023-01-19T10:16:03.869Z,4.50
2023-01-19T10:18:47.987Z,4.30
2023-01-19T10:21:18.071Z,4.28
2023-01-19T10:23:55.623Z,3.88
2023-01-19T10:26:52.644Z,4.38
2023-01-19T10:29:28.282Z,4.40
2023-01-19T10:32:09.122Z,4.50
2023-01-19T10:34:36.708Z,5.35
2023-01-19T10:37:19.812Z,4.40
2023-01-19T10:39:52.007Z,4.82
2023-01-19T10:42:18.687Z,4.30
2023-01-19T10:44:45.889Z,4.35
2023-01-19T10:47:17.569Z,4.68
2023-01-19T10:49:44.581Z,4.60
2023-01-19T10:52:34.066Z,4.10
2023-01-19T10:55:03.039Z,4.38
2023-01-19T10:57:37.133Z,4.88
2023-01-19T11:00:29.510Z,4.47
2023-01-19T11:02:56.140Z,4.47
2023-01-19T11:05:31.494Z,4.07
2023-01-19T11:07:58.475Z,4.80
2023-01-19T11:10:29.846Z,4.07
2023-01-19T11:13:15.792Z,4.15
2023-01-19T11:15:53.959Z,4.25
2023-01-19T11:18:31.639Z,4.40
2023-01-19T11:21:02.263Z,4.90
2023-01-19T11:23:37.553Z,5.22
2023-01-19T11:26:05.834Z,4.75
2023-01-19T11:28:39.561Z,4.00
2023-01-19T11:31:15.029Z,4.18
2023-01-19T11:33:51.556Z,4.13
2023-01-19T11:36:23.462Z,4.45
2023-01-19T11:38:52.910Z,4.03
2023-01-19T11:41:36.580Z,4.50
2023-01-19T11:44:09.310Z,4.80
2023-01-19T11:46:40.735Z,3.97
2023-01-19T11:49:19.825Z,4.20
2023-01-19T11:52:04.714Z,4.68
2023-01-19T11:54:47.424Z,5.75
2023-01-19T11:57:17.175Z,4.30
2023-01-19T11:59:44.619Z,4.32
2023-01-19T12:02:20.374Z,4.43
2023-01-19T12:04:49.123Z,4.75
2023-01-19T12:07:29.469Z,4.50
2023-01-19T12:10:15.245Z,4.25
2023-01-19T12:12:44.912Z,4.72
2023-01-19T12:15:23.471Z,4.18
2023-01-19T12:17:52.160Z,4.03
2023-01-19T12:20:30.964Z,4.50
2023-01-19T12:23:31.797Z,4.50
2023-01-19T12:26:16.235Z,4.57
2023-01-19T12:28:47.295Z,4.60
2023-01-19T12:31:17.394Z,4.88
2023-01-19T12:33:44.238Z,5.07
2023-01-19T12:36:37.689Z,4.60
2023-01-19T12:39:20.790Z,4.18
2023-01-19T12:41:48.186Z,4.57
2023-01-19T12:44:20.964Z,4.78
2023-01-19T12:46:53.205Z,4.75
2023-01-19T12:49:27.305Z,4.35
2023-01-19T12:52:11.844Z,4.57
2023-01-19T12:54:42.734Z,4.25
2023-01-19T12:57:23.154Z,4.25
2023-01-19T12:59:58.199Z,3.90
2023-01-19T13:02:24.723Z,4.00
2023-01-19T13:05:11.577Z,4.20
2023-01-19T13:08:03.284Z,4.57
2023-01-19T13:11:02.109Z,3.72
2023-01-19T13:13:30.738Z,3.75
2023-01-19T13:16:29.959Z,4.28
2023-01-19T13:19:05.286Z,3.60
2023-01-19T13:21:40.333Z,4.13
2023-01-19T13:24:09.017Z,3.85
2023-01-19T13:26:42.327Z,3.47
2023-01-19T13:29:16.613Z,3.47
2023-01-19T13:31:49.018Z,3.55
2023-01-19T13:34:21.441Z,3.35
2023-01-19T13:36:52.010Z,3.70
2023-01-19T13:39:28.740Z,3.47
2023-01-19T13:41:59.837Z,3.67
2023-01-19T13:44:30.708Z,3.63
2023-01-19T13:46:59.765Z,4.00
2023-01-19T13:49:46.439Z,3.90
2023-01-19T13:52:16.951Z,3.67
2023-01-19T13:54:55.384Z,4.00
2023-01-19T13:57:24.773Z,4.05
2023-01-19T14:00:11.924Z,4.15
2023-01-19T14:02:57.172Z,5.28
2023-01-19T14:05:37.698Z,4.05
2023-01-19T14:08:13.285Z,4.22
2023-01-19T14:10:43.315Z,4.78
2023-01-19T14:13:16.219Z,4.68
2023-01-19T14:15:45.109Z,4.72
2023-01-19T14:18:17.883Z,4.88
2023-01-19T14:20:54.037Z,4.10
2023-01-19T14:23:53.060Z,4.75
2023-01-19T14:26:37.891Z,4.35
2023-01-19T14:29:10.475Z,3.72
2023-01-19T14:31:49.648Z,4.40
2023-01-19T14:34:54.884Z,3.95
2023-01-19T14:37:27.935Z,3.47
2023-01-19T14:40:12.966Z,3.67
2023-01-19T14:42:47.659Z,5.30
2023-01-19T14:45:18.302Z,4.18
2023-01-19T14:47:52.389Z,3.92
2023-01-19T14:50:24.277Z,3.88
2023-01-19T14:53:28.582Z,4.35
2023-01-19T14:56:00.657Z,4.10
2023-01-19T14:58:30.060Z,4.15
2023-01-19T15:00:56.827Z,4.68
2023-01-19T15:03:34.886Z,4.93
2023-01-19T15:06:28.033Z,3.53
2023-01-19T15:08:55.491Z,4.18
2023-01-19T15:11:26.972Z,3.42
2023-01-19T15:13:55.156Z,3.85
2023-01-19T15:16:23.362Z,4.18
2023-01-19T15:18:49.943Z,3.38
2023-01-19T15:21:23.563Z,3.65
2023-01-19T15:23:50.501Z,3.35
2023-01-19T15:26:19.703Z,3.17
2023-01-19T15:28:48.796Z,3.03
2023-01-19T15:31:17.701Z,3.53
2023-01-19T15:33:44.937Z,4.72
2023-01-19T15:36:14.017Z,3.10
2023-01-19T15:38:41.523Z,2.75
2023-01-19T15:41:14.810Z,3.25
2023-01-19T15:43:41.536Z,3.20
2023-01-19T15:46:11.558Z,2.78
2023-01-19T15:48:38.088Z,2.85
2023-01-19T15:51:05.566Z,3.38
2023-01-19T15:53:32.264Z,3.35
2023-01-19T15:55:58.813Z,2.83
2023-01-19T15:58:25.443Z,3.05
2023-01-19T16:00:57.281Z,3.50
2023-01-19T16:03:25.520Z,3.50
2023-01-19T16:05:52.110Z,3.35
2023-01-19T16:08:18.807Z,3.47
2023-01-19T16:10:45.377Z,4.47
2023-01-19T16:13:12.283Z,3.63
2023-01-19T16:15:42.451Z,4.15
2023-01-19T16:18:09.423Z,4.90
2023-01-19T16:20:37.230Z,3.80
2023-01-19T16:23:14.432Z,4.82
2023-01-19T16:25:42.000Z,4.38
2023-01-19T16:28:09.041Z,4.10
2023-01-19T16:30:35.687Z,4.68
2023-01-19T16:33:02.326Z,4.82
2023-01-19T16:35:28.848Z,5.20
2023-01-19T16:37:55.334Z,5.05
2023-01-19T16:40:21.900Z,5.28
2023-01-19T16:42:48.602Z,4.40
2023-01-19T16:45:15.276Z,4.70
2023-01-19T16:47:41.999Z,4.85
2023-01-19T16:50:11.787Z,4.88
2023-01-19T16:52:38.720Z,5.10
2023-01-19T16:55:09.311Z,5.72
2023-01-19T16:57:38.857Z,5.28
2023-01-19T17:00:09.285Z,5.45
2023-01-19T17:02:36.360Z,5.18
2023-01-19T17:05:03.068Z,5.70
2023-01-19T17:07:29.855Z,5.97
2023-01-19T17:09:56.443Z,5.22
2023-01-19T17:12:23.149Z,6.70
2023-01-19T17:14:49.754Z,6.00
2023-01-19T17:17:16.301Z,5.78
2023-01-19T17:19:45.036Z,5.38
2023-01-19T17:22:12.890Z,5.10
2023-01-19T17:24:42.318Z,5.65
2023-01-19T17:27:09.348Z,5.78
2023-01-19T17:29:35.980Z,5.75
2023-01-19T17:32:02.773Z,5.80
2023-01-19T17:34:29.411Z,5.47
2023-01-19T17:37:02.730Z,6.32
2023-01-19T17:39:29.497Z,6.13
2023-01-19T17:41:56.062Z,6.28
2023-01-19T17:44:22.884Z,5.53
2023-01-19T17:46:49.452Z,5.82
2023-01-19T17:49:16.212Z,5.90
2023-01-19T17:51:42.845Z,6.30
2023-01-19T17:54:10.801Z,6.03
2023-01-19T17:56:38.633Z,6.18
2023-01-19T17:59:07.723Z,6.53
2023-01-19T18:01:37.758Z,6.63
2023-01-19T18:04:04.651Z,6.47
2023-01-19T18:06:31.383Z,6.45
2023-01-19T18:08:59.306Z,6.18
2023-01-19T18:11:26.940Z,6.68
2023-01-19T18:13:53.723Z,7.63
2023-01-19T18:16:26.061Z,7.68
2023-01-19T18:18:54.686Z,5.75
2023-01-19T18:21:22.956Z,6.57
2023-01-19T18:23:50.449Z,6.25
2023-01-19T18:26:20.615Z,6.15
2023-01-19T18:28:48.525Z,6.07
2023-01-19T18:31:17.465Z,6.32
2023-01-19T18:33:44.564Z,7.03
2023-01-19T18:36:11.616Z,6.53
2023-01-19T18:38:39.025Z,6.68
2023-01-19T18:41:08.348Z,7.18
2023-01-19T18:43:34.931Z,6.63
2023-01-19T18:46:02.002Z,6.65
2023-01-19T18:48:29.243Z,6.57
2023-01-19T18:50:56.480Z,7.18
2023-01-19T18:53:24.219Z,6.55
2023-01-19T18:55:56.082Z,7.07
2023-01-19T18:58:23.340Z,6.45
2023-01-19T19:00:50.522Z,7.47
2023-01-19T19:03:17.745Z,9.00
2023-01-19T19:05:44.337Z,8.15
2023-01-19T19:08:11.065Z,9.20
2023-01-19T19:10:37.660Z,7.47
2023-01-19T19:13:04.242Z,7.22
2023-01-19T19:15:32.940Z,8.60
2023-01-19T19:18:00.207Z,8.13
2023-01-19T19:20:27.139Z,8.00
2023-01-19T19:22:55.115Z,7.55
2023-01-19T19:25:21.761Z,7.75
2023-01-19T19:27:52.595Z,7.95
2023-01-19T19:30:19.928Z,7.72
2023-01-19T19:32:52.756Z,8.25
2023-01-19T19:35:21.116Z,8.38
2023-01-19T19:37:48.813Z,9.30
2023-01-19T19:40:16.047Z,8.68
2023-01-19T19:42:42.735Z,7.90
2023-01-19T19:45:09.859Z,9.20
2023-01-19T19:47:36.387Z,8.77
2023-01-19T19:50:03.013Z,9.40
2023-01-19T19:52:29.592Z,9.40
2023-01-19T19:54:56.160Z,8.70
2023-01-19T19:57:22.872Z,8.57
2023-01-19T19:59:49.386Z,9.20
2023-01-19T20:02:15.983Z,8.95
2023-01-19T20:04:43.044Z,9.05
2023-01-19T20:07:09.595Z,9.20
2023-01-19T20:09:36.820Z,9.25
2023-01-19T20:12:03.726Z,9.57
2023-01-19T20:14:30.277Z,8.75
2023-01-19T20:16:56.884Z,9.48
2023-01-19T20:19:23.457Z,9.73
2023-01-19T20:21:50.053Z,10.07
2023-01-19T20:24:19.469Z,10.02
2023-01-19T20:26:51.783Z,8.52
2023-01-19T20:29:20.092Z,9.93
2023-01-19T20:31:55.284Z,9.60
2023-01-19T20:34:24.989Z,10.45
2023-01-19T20:36:53.791Z,9.88
2023-01-19T20:39:22.478Z,9.75
2023-01-19T20:41:51.346Z,10.07
2023-01-19T20:44:23.678Z,10.15
2023-01-19T20:46:51.253Z,11.13
2023-01-19T20:49:17.823Z,10.27
2023-01-19T20:51:46.703Z,9.90
2023-01-19T20:54:15.803Z,10.45
2023-01-19T20:56:42.477Z,11.00
2023-01-19T20:59:10.161Z,11.93
2023-01-19T21:01:37.547Z,11.40
2023-01-19T21:04:04.281Z,11.90
2023-01-19T21:06:31.264Z,12.15
2023-01-19T21:08:58.290Z,11.55
2023-01-19T21:11:25.644Z,12.60
2023-01-19T21:13:55.796Z,12.52
2023-01-19T21:19:09.291Z,12.75
2023-01-19T21:21:35.993Z,12.52
2023-01-19T21:24:03.909Z,12.43
2023-01-19T21:26:31.418Z,13.45
2023-01-19T21:28:59.255Z,12.90
2023-01-19T21:31:27.736Z,13.95
2023-01-19T21:33:55.629Z,14.05
2023-01-19T21:36:23.354Z,13.32
2023-01-19T21:38:52.915Z,12.65
2023-01-19T21:41:19.808Z,13.07
2023-01-19T21:43:46.952Z,14.13
2023-01-19T21:46:18.441Z,11.85
2023-01-19T21:48:45.896Z,12.93
2023-01-19T21:51:13.579Z,13.10
2023-01-19T21:53:40.563Z,13.05
2023-01-19T21:56:09.444Z,13.80
2023-01-19T21:58:36.188Z,12.27
2023-01-19T22:01:12.604Z,13.88
2023-01-19T22:03:40.148Z,12.20
2023-01-19T22:06:09.636Z,11.82
2023-01-19T22:08:36.886Z,13.07
2023-01-19T22:11:05.550Z,12.95
2023-01-19T22:13:33.395Z,12.57
2023-01-19T22:16:01.887Z,12.30
2023-01-19T22:18:29.177Z,12.25
2023-01-19T22:20:55.750Z,11.95
2023-01-19T22:23:22.397Z,13.50
2023-01-19T22:25:48.932Z,12.55
2023-01-19T22:28:15.411Z,14.45
2023-01-19T22:31:47.435Z,13.10
2023-01-19T22:34:15.971Z,12.90
2023-01-19T22:36:43.153Z,13.55
2023-01-19T22:39:11.626Z,13.20
2023-01-19T22:41:41.036Z,12.23
2023-01-19T22:44:11.361Z,12.35
2023-01-19T22:46:38.313Z,12.50
2023-01-19T22:49:07.440Z,11.27
2023-01-19T22:51:35.147Z,11.52
2023-01-19T22:54:02.050Z,12.10
2023-01-19T22:56:31.397Z,11.48
2023-01-19T22:58:58.985Z,11.30
2023-01-19T23:01:28.753Z,12.43
2023-01-19T23:03:55.994Z,11.65
2023-01-19T23:06:24.744Z,11.63
2023-01-19T23:08:52.200Z,10.60
2023-01-19T23:11:21.846Z,11.20
2023-01-19T23:13:49.482Z,10.88
2023-01-19T23:16:16.775Z,11.55
2023-01-19T23:18:43.945Z,11.70
2023-01-19T23:21:16.075Z,11.07
2023-01-19T23:23:43.616Z,10.70
2023-01-19T23:26:16.221Z,12.13
2023-01-19T23:28:43.989Z,11.68
2023-01-19T23:31:22.807Z,10.88
2023-01-19T23:33:51.465Z,11.75
2023-01-19T23:36:18.955Z,10.73
2023-01-19T23:38:54.016Z,11.77
2023-01-19T23:41:21.648Z,10.55
2023-01-19T23:43:48.586Z,11.38
2023-01-19T23:46:16.501Z,11.38
2023-01-19T23:48:43.600Z,12.20
2023-01-19T23:51:15.826Z,11.45
2023-01-19T23:53:42.484Z,12.73
2023-01-19T23:56:10.154Z,11.88
2023-01-19T23:58:36.794Z,10.93
